createdAt,value
2018-10-09T00:01:16.684Z,101001.48
2018-10-09T00:03:46.808Z,100997.16
2018-10-09T00:06:18.142Z,100997.39
2018-10-09T00:08:49.372Z,100992.70
2018-10-09T00:11:20.318Z,100992.94
2018-10-09T00:13:50.937Z,100994.02
2018-10-09T00:16:21.941Z,100999.98
2018-10-09T00:18:52.527Z,100985.34
2018-10-09T00:21:23.870Z,100989.06
2018-10-09T00:23:54.739Z,100984.75
2018-10-09T00:26:25.657Z,100983.89
2018-10-09T00:28:56.420Z,100982.44
2018-10-09T00:31:27.957Z,100985.20
2018-10-09T00:33:58.617Z,100988.06
2018-10-09T00:36:29.457Z,100997.48
2018-10-09T00:39:00.625Z,100989.67
2018-10-09T00:41:31.504Z,100982.94
2018-10-09T00:44:02.680Z,100983.53
2018-10-09T00:46:33.611Z,100989.76
2018-10-09T00:49:04.396Z,100989.98
2018-10-09T00:51:35.797Z,100988.43
2018-10-09T00:54:06.603Z,100986.84
2018-10-09T00:56:38.195Z,100990.06
2018-10-09T00:59:09.111Z,100980.11
2018-10-09T01:01:41.772Z,100981.65
2018-10-09T01:04:12.890Z,100977.45
2018-10-09T01:06:43.922Z,100981.88
2018-10-09T01:09:14.370Z,100983.78
2018-10-09T01:11:45.123Z,100984.00
2018-10-09T01:14:16.889Z,100983.86
2018-10-09T01:16:47.503Z,100990.45
2018-10-09T01:19:17.264Z,100992.35
2018-10-09T01:21:47.800Z,100991.16
2018-10-09T01:24:18.728Z,100918.87
2018-10-09T01:26:49.513Z,100987.88
2018-10-09T01:29:21.184Z,100994.97
2018-10-09T01:31:51.684Z,100990.28
2018-10-09T01:34:23.040Z,100983.91
2018-10-09T01:36:53.608Z,100985.69
2018-10-09T01:39:24.616Z,100984.95
2018-10-09T01:41:57.170Z,100985.18
2018-10-09T01:44:27.641Z,100975.59
2018-10-09T01:46:57.695Z,100981.08
2018-10-09T01:49:28.692Z,100962.92
2018-10-09T01:51:59.447Z,100981.30
2018-10-09T01:54:30.744Z,100982.34
2018-10-09T01:57:01.541Z,100977.41
2018-10-09T01:59:32.768Z,100980.14
2018-10-09T02:02:03.600Z,100984.67
2018-10-09T02:04:34.561Z,100985.63
2018-10-09T02:07:05.740Z,100982.39
2018-10-09T02:09:36.636Z,100958.39
2018-10-09T02:12:07.668Z,100990.02
2018-10-09T02:14:38.587Z,100987.01
2018-10-09T02:17:09.448Z,100982.81
2018-10-09T02:19:40.818Z,100982.08
2018-10-09T02:22:11.504Z,100980.40
2018-10-09T02:24:42.884Z,100965.46
2018-10-09T02:27:13.596Z,100978.93
2018-10-09T02:29:44.471Z,100982.15
2018-10-09T02:32:15.579Z,100987.62
2018-10-09T02:34:46.478Z,100996.11
2018-10-09T02:37:17.632Z,101005.78
2018-10-09T02:39:48.484Z,101011.53
2018-10-09T02:42:19.654Z,100984.31
2018-10-09T02:44:50.908Z,101001.46
2018-10-09T02:47:21.784Z,100971.85
2018-10-09T02:49:52.659Z,101014.11
2018-10-09T02:52:24.313Z,101010.28
2018-10-09T02:54:54.752Z,101013.95
2018-10-09T02:57:25.431Z,101013.13
2018-10-09T02:59:56.809Z,100999.59
2018-10-09T03:02:27.820Z,100987.16
2018-10-09T03:04:58.636Z,100982.33
2018-10-09T03:07:29.400Z,100978.80
2018-10-09T03:10:00.892Z,100983.78
2018-10-09T03:12:31.543Z,100987.94
2018-10-09T03:15:02.418Z,101001.59
2018-10-09T03:17:33.623Z,101000.85
2018-10-09T03:20:06.056Z,101009.33
2018-10-09T03:22:36.085Z,101006.70
2018-10-09T03:25:07.157Z,100999.37
2018-10-09T03:27:37.696Z,101003.91
2018-10-09T03:30:10.372Z,101000.91
2018-10-09T03:32:40.432Z,101006.74
2018-10-09T03:35:10.669Z,101018.22
2018-10-09T03:37:41.520Z,101005.40
2018-10-09T03:40:12.325Z,101019.33
2018-10-09T03:42:43.803Z,101013.34
2018-10-09T03:45:14.561Z,101001.04
2018-10-09T03:47:45.736Z,100984.11
2018-10-09T03:50:16.505Z,101001.54
2018-10-09T03:52:47.405Z,101012.06
2018-10-09T03:55:18.680Z,101003.43
2018-10-09T03:57:49.579Z,100999.85
2018-10-09T04:00:20.488Z,100983.29
2018-10-09T04:02:51.780Z,100989.17
2018-10-09T04:05:22.528Z,100994.30
2018-10-09T04:07:53.909Z,100995.41
2018-10-09T04:10:24.560Z,100992.13
2018-10-09T04:12:55.392Z,100992.49
2018-10-09T04:15:26.593Z,100993.44
2018-10-09T04:17:57.753Z,100998.21
2018-10-09T04:20:28.517Z,101009.68
2018-10-09T04:22:59.443Z,101008.48
2018-10-09T04:25:30.747Z,101009.88
2018-10-09T04:28:01.563Z,101016.45
2018-10-09T04:30:32.359Z,101027.92
2018-10-09T04:33:03.732Z,101023.72
2018-10-09T04:35:34.520Z,100992.73
2018-10-09T04:38:05.580Z,100998.36
2018-10-09T04:40:36.335Z,101035.77
2018-10-09T04:43:07.757Z,101038.84
2018-10-09T04:45:38.484Z,101036.34
2018-10-09T04:48:09.680Z,101033.79
2018-10-09T04:50:40.599Z,101035.11
2018-10-09T04:53:11.736Z,101034.91
2018-10-09T04:55:42.565Z,101024.79
2018-10-09T04:58:13.544Z,101027.45
2018-10-09T05:00:44.754Z,101028.59
2018-10-09T05:03:15.644Z,100994.83
2018-10-09T05:05:46.434Z,101031.54
2018-10-09T05:08:17.749Z,101025.71
2018-10-09T05:10:48.568Z,101019.39
2018-10-09T05:13:19.620Z,101016.14
2018-10-09T05:15:50.444Z,101018.20
2018-10-09T05:18:21.811Z,101017.91
2018-10-09T05:20:52.583Z,101026.17
2018-10-09T05:23:23.594Z,101016.91
2018-10-09T05:25:54.662Z,101022.45
2018-10-09T05:28:25.574Z,101013.25
2018-10-09T05:30:56.365Z,101018.68
2018-10-09T05:33:27.740Z,101014.91
2018-10-09T05:35:58.547Z,101023.17
2018-10-09T05:38:29.920Z,101036.97
2018-10-09T05:41:00.852Z,101041.37
2018-10-09T05:43:31.868Z,101037.80
2018-10-09T05:46:02.627Z,101044.17
2018-10-09T05:48:33.380Z,101055.06
2018-10-09T05:51:04.720Z,101052.80
2018-10-09T05:53:35.560Z,101061.44
2018-10-09T05:56:06.355Z,101058.80
2018-10-09T05:58:37.641Z,101053.91
2018-10-09T06:01:08.623Z,101060.78
2018-10-09T06:03:39.452Z,101064.03
2018-10-09T06:06:10.590Z,101059.27
2018-10-09T06:08:41.512Z,101062.63
2018-10-09T06:11:12.255Z,101073.04
2018-10-09T06:13:43.802Z,101074.16
2018-10-09T06:16:14.561Z,101075.75
2018-10-09T06:18:47.459Z,101072.23
2018-10-09T06:21:17.508Z,101071.45
2018-10-09T06:23:47.747Z,101071.54
2018-10-09T06:26:18.670Z,101068.59
2018-10-09T06:28:49.453Z,101070.84
2018-10-09T06:31:21.223Z,101077.38
2018-10-09T06:33:51.666Z,101063.11
2018-10-09T06:36:22.555Z,101085.56
2018-10-09T06:38:53.296Z,101085.14
2018-10-09T06:41:24.701Z,101089.62
2018-10-09T06:43:55.620Z,101102.00
2018-10-09T06:46:26.561Z,101100.64
2018-10-09T06:48:57.365Z,101101.79
2018-10-09T06:51:28.857Z,101105.32
2018-10-09T06:54:07.920Z,101106.59
2018-10-09T06:56:40.000Z,101094.02
2018-10-09T06:59:10.009Z,101093.94
2018-10-09T07:01:40.582Z,101091.55
2018-10-09T07:04:10.631Z,101093.39
2018-10-09T07:06:40.734Z,101089.55
2018-10-09T07:09:12.189Z,101102.03
2018-10-09T07:11:42.577Z,101105.91
2018-10-09T07:14:13.050Z,101104.89
2018-10-09T07:16:43.305Z,101102.70
2018-10-09T07:19:13.456Z,101108.52
2018-10-09T07:21:43.701Z,101106.08
2018-10-09T07:24:13.797Z,101110.70
2018-10-09T07:26:43.952Z,101111.89
2018-10-09T07:29:14.044Z,101117.18
2018-10-09T07:31:44.736Z,101120.81
2018-10-09T07:34:15.522Z,101124.60
2018-10-09T07:36:46.800Z,101117.91
2018-10-09T07:39:17.618Z,101120.23
2018-10-09T07:41:48.580Z,101123.66
2018-10-09T07:44:19.374Z,101119.13
2018-10-09T07:46:50.493Z,101111.24
2018-10-09T07:49:21.538Z,101107.63
2018-10-09T07:51:52.765Z,101110.52
2018-10-09T07:54:24.734Z,101108.01
2018-10-09T07:56:54.828Z,101106.34
2018-10-09T07:59:25.902Z,101107.64
2018-10-09T08:01:56.806Z,101116.98
2018-10-09T08:04:27.609Z,101116.34
2018-10-09T08:06:58.539Z,101124.97
2018-10-09T08:09:29.717Z,101123.30
2018-10-09T08:12:00.652Z,101127.28
2018-10-09T08:14:31.490Z,101123.65
2018-10-09T08:17:03.026Z,101133.34
2018-10-09T08:19:33.605Z,101130.27
2018-10-09T08:22:04.537Z,101131.72
2018-10-09T08:24:35.393Z,101133.34
2018-10-09T08:27:07.707Z,101140.59
2018-10-09T08:29:37.559Z,101142.81
2018-10-09T08:32:08.528Z,101135.53
2018-10-09T08:34:39.759Z,101141.37
2018-10-09T08:37:11.198Z,101149.44
2018-10-09T08:39:42.007Z,101141.33
2018-10-09T08:42:12.744Z,101140.59
2018-10-09T08:44:43.778Z,101146.22
2018-10-09T08:47:15.498Z,101137.30
2018-10-09T08:49:45.393Z,101134.16
2018-10-09T08:52:16.898Z,101131.67
2018-10-09T08:54:47.710Z,101136.91
2018-10-09T08:57:18.734Z,101138.48
2018-10-09T08:59:49.652Z,101139.69
2018-10-09T09:02:20.762Z,101141.94
2018-10-09T09:04:51.723Z,101145.72
2018-10-09T09:07:22.745Z,101147.80
2018-10-09T09:09:53.589Z,101145.11
2018-10-09T09:12:24.594Z,101147.56
2018-10-09T09:14:55.476Z,101142.62
2018-10-09T09:17:26.450Z,101145.34
2018-10-09T09:19:57.912Z,101134.75
2018-10-09T09:22:28.690Z,101138.16
2018-10-09T09:24:59.489Z,101123.34
2018-10-09T09:27:31.231Z,101137.97
2018-10-09T09:30:01.783Z,101124.09
2018-10-09T09:32:32.708Z,101138.17
2018-10-09T09:35:03.596Z,101134.16
2018-10-09T09:37:34.727Z,101132.34
2018-10-09T09:40:05.855Z,101128.37
2018-10-09T09:42:36.792Z,101126.87
2018-10-09T09:45:07.870Z,101122.30
2018-10-09T09:47:38.988Z,101119.52
2018-10-09T09:50:09.688Z,101124.03
2018-10-09T09:52:40.611Z,101123.89
2018-10-09T09:55:11.467Z,101115.77
2018-10-09T09:57:42.657Z,101116.36
2018-10-09T10:00:18.630Z,101112.11
2018-10-09T10:02:48.548Z,101107.83
2018-10-09T10:05:18.452Z,101098.93
2018-10-09T10:07:48.385Z,101104.33
2018-10-09T10:10:18.336Z,101107.30
2018-10-09T10:12:48.913Z,101107.02
2018-10-09T10:15:19.830Z,101118.25
2018-10-09T10:17:50.697Z,101116.91
2018-10-09T10:20:21.645Z,101117.61
2018-10-09T10:22:53.563Z,101113.23
2018-10-09T10:25:23.574Z,101101.80
2018-10-09T10:27:54.503Z,101108.41
2018-10-09T10:30:25.580Z,101108.66
2018-10-09T10:32:56.477Z,101109.16
2018-10-09T10:35:27.895Z,101106.45
2018-10-09T10:37:58.617Z,101115.09
2018-10-09T10:40:29.648Z,101114.16
2018-10-09T10:43:00.502Z,101110.48
2018-10-09T10:45:31.526Z,101117.69
2018-10-09T10:48:02.534Z,101114.66
2018-10-09T10:50:33.629Z,101113.64
2018-10-09T10:53:04.600Z,101114.22
2018-10-09T10:55:35.518Z,101105.83
2018-10-09T10:58:07.100Z,101104.02
2018-10-09T11:00:37.750Z,101103.26
2018-10-09T11:03:08.658Z,101096.65
2018-10-09T11:05:39.601Z,101099.44
2018-10-09T11:08:10.481Z,101098.35
2018-10-09T11:10:41.684Z,101092.86
2018-10-09T11:13:12.849Z,101097.47
2018-10-09T11:15:43.732Z,101097.63
2018-10-09T11:18:14.741Z,101089.33
2018-10-09T11:20:45.682Z,101091.06
2018-10-09T11:23:16.705Z,101091.03
2018-10-09T11:25:47.603Z,101091.05
2018-10-09T11:28:18.696Z,101080.14
2018-10-09T11:30:49.861Z,101090.64
2018-10-09T11:33:21.213Z,101080.59
2018-10-09T11:35:52.017Z,101080.80
2018-10-09T11:38:22.674Z,101080.45
2018-10-09T11:40:53.730Z,101091.02
2018-10-09T11:43:24.692Z,101086.12
2018-10-09T11:45:55.818Z,101083.72
2018-10-09T11:48:26.674Z,101084.55
2018-10-09T11:50:58.553Z,101076.83
2018-10-09T11:53:28.477Z,101078.67
2018-10-09T11:55:59.921Z,101079.84
2018-10-09T11:58:30.770Z,101079.22
2018-10-09T12:01:04.626Z,101080.66
2018-10-09T12:03:34.514Z,101077.02
2018-10-09T12:06:04.484Z,101067.64
2018-10-09T12:08:34.557Z,101074.36
2018-10-09T12:11:04.655Z,101067.91
2018-10-09T12:13:35.597Z,101066.81
2018-10-09T12:16:06.756Z,101068.12
2018-10-09T12:18:37.768Z,101062.81
2018-10-09T12:21:08.736Z,101064.85
2018-10-09T12:23:39.805Z,101063.80
2018-10-09T12:26:11.754Z,101031.99
2018-10-09T12:28:41.997Z,101067.61
2018-10-09T12:31:12.980Z,101073.77
2018-10-09T12:33:43.906Z,101066.25
2018-10-09T12:36:14.637Z,101069.73
2018-10-09T12:38:45.582Z,101063.59
2018-10-09T12:41:16.441Z,101058.17
2018-10-09T12:43:47.559Z,101059.98
2018-10-09T12:46:18.541Z,101054.70
2018-10-09T12:48:49.712Z,101051.30
2018-10-09T12:51:20.556Z,101054.02
2018-10-09T12:53:51.541Z,101052.14
2018-10-09T12:56:22.400Z,101055.42
2018-10-09T12:58:53.863Z,101048.09
2018-10-09T13:01:24.758Z,101053.02
2018-10-09T13:03:55.794Z,101042.38
2018-10-09T13:06:26.660Z,101045.83
2018-10-09T13:08:58.838Z,101046.55
2018-10-09T13:11:28.775Z,101041.70
2018-10-09T13:13:59.793Z,101036.63
2018-10-09T13:16:30.638Z,101034.70
2018-10-09T13:19:01.685Z,101033.78
2018-10-09T13:21:33.648Z,101037.24
2018-10-09T13:24:03.471Z,101033.62
2018-10-09T13:26:34.375Z,101030.44
2018-10-09T13:29:06.041Z,101020.84
2018-10-09T13:31:36.677Z,101023.89
2018-10-09T13:34:07.836Z,101023.08
2018-10-09T13:36:38.661Z,101026.47
2018-10-09T13:39:09.990Z,101029.08
2018-10-09T13:41:40.699Z,101022.17
2018-10-09T13:44:11.801Z,101022.74
2018-10-09T13:46:42.728Z,101028.77
2018-10-09T13:49:13.759Z,101023.52
2018-10-09T13:51:44.780Z,101023.22
2018-10-09T13:54:15.782Z,101024.33
2018-10-09T13:56:46.689Z,101001.51
2018-10-09T13:59:18.120Z,101019.08
2018-10-09T14:01:48.655Z,101013.59
2018-10-09T14:04:19.525Z,101017.56
2018-10-09T14:06:50.450Z,100997.06
2018-10-09T14:09:22.966Z,101011.36
2018-10-09T14:11:54.066Z,101003.67
2018-10-09T14:14:24.130Z,101009.03
2018-10-09T14:16:55.068Z,101009.20
2018-10-09T14:19:27.239Z,101009.97
2018-10-09T14:21:57.260Z,101007.33
2018-10-09T14:24:28.384Z,101001.80
2018-10-09T14:26:58.707Z,100999.86
2018-10-09T14:29:29.787Z,100998.50
2018-10-09T14:32:00.642Z,100992.27
2018-10-09T14:34:31.562Z,100998.98
2018-10-09T14:37:02.374Z,100996.28
2018-10-09T14:39:33.828Z,101000.09
2018-10-09T14:42:04.938Z,100995.48
2018-10-09T14:44:35.809Z,100995.72
2018-10-09T14:47:06.633Z,100993.01
2018-10-09T14:49:37.637Z,100993.81
2018-10-09T14:52:08.763Z,100994.75
2018-10-09T14:54:40.021Z,100993.84
2018-10-09T14:57:10.622Z,100989.25
2018-10-09T14:59:41.525Z,100987.09
2018-10-09T15:02:12.486Z,100980.92
2018-10-09T15:04:43.509Z,100988.71
2018-10-09T15:07:14.432Z,100995.62
2018-10-09T15:09:45.499Z,100996.80
2018-10-09T15:12:16.413Z,100998.16
2018-10-09T15:14:47.496Z,100992.12
2018-10-09T15:17:18.386Z,100996.33
2018-10-09T15:19:49.427Z,100998.38
2018-10-09T15:22:20.405Z,100998.83
2018-10-09T15:24:52.021Z,101000.13
2018-10-09T15:27:22.841Z,101003.92
2018-10-09T15:29:53.958Z,100998.64
2018-10-09T15:32:24.718Z,100999.92
2018-10-09T15:34:55.818Z,100994.87
2018-10-09T15:37:26.683Z,101003.15
2018-10-09T15:39:58.526Z,100992.91
2018-10-09T15:42:28.353Z,101002.87
2018-10-09T15:44:59.967Z,100997.30
2018-10-09T15:47:30.949Z,101011.33
2018-10-09T15:50:02.134Z,101011.05
2018-10-09T15:52:32.840Z,100996.72
2018-10-09T15:55:03.744Z,101012.17
2018-10-09T15:57:34.673Z,101017.36
2018-10-09T16:00:05.976Z,101016.50
2018-10-09T16:02:37.451Z,101017.48
2018-10-09T16:05:08.008Z,101012.02
2018-10-09T16:07:39.698Z,101012.47
2018-10-09T16:10:09.773Z,101013.55
2018-10-09T16:12:40.685Z,101012.55
2018-10-09T16:15:11.687Z,101008.20
2018-10-09T16:17:42.565Z,101015.44
2018-10-09T16:20:13.537Z,101007.77
2018-10-09T16:22:44.382Z,101017.42
2018-10-09T16:25:16.032Z,101014.31
2018-10-09T16:27:46.698Z,101018.56
2018-10-09T16:30:18.162Z,101021.89
2018-10-09T16:32:49.418Z,101021.03
2018-10-09T16:35:19.592Z,101028.27
2018-10-09T16:37:50.527Z,101022.27
2018-10-09T16:40:21.533Z,101023.47
2018-10-09T16:42:52.394Z,101030.98
2018-10-09T16:45:24.112Z,101034.69
2018-10-09T16:47:54.780Z,101036.52
2018-10-09T16:50:25.730Z,101045.18
2018-10-09T16:52:56.608Z,101037.56
2018-10-09T16:55:27.686Z,101045.59
2018-10-09T16:57:58.531Z,101040.32
2018-10-09T17:00:31.155Z,101044.94
2018-10-09T17:03:01.364Z,101043.36
2018-10-09T17:05:31.943Z,101037.88
2018-10-09T17:08:02.620Z,101038.80
2018-10-09T17:10:33.685Z,101040.72
2018-10-09T17:13:04.624Z,101043.45
2018-10-09T17:15:35.560Z,101040.64
2018-10-09T17:18:06.768Z,101040.16
2018-10-09T17:20:37.810Z,101032.34
2018-10-09T17:23:09.217Z,101039.29
2018-10-09T17:25:39.848Z,101041.22
2018-10-09T17:28:10.715Z,101059.39
2018-10-09T17:30:41.780Z,101053.06
2018-10-09T17:33:12.758Z,101051.79
2018-10-09T17:35:42.875Z,101049.81
2018-10-09T17:38:15.343Z,101046.15
2018-10-09T17:40:45.374Z,101045.52
2018-10-09T17:43:15.710Z,101038.54
2018-10-09T17:45:46.736Z,101052.16
2018-10-09T17:48:17.672Z,101045.84
2018-10-09T17:50:48.840Z,101052.73
2018-10-09T17:53:19.780Z,101025.67
2018-10-09T17:55:50.778Z,101050.41
2018-10-09T17:58:21.720Z,101053.45
2018-10-09T18:00:52.863Z,101049.64
2018-10-09T18:03:24.094Z,101054.69
2018-10-09T18:05:54.982Z,101062.91
2018-10-09T18:08:25.707Z,101061.93
2018-10-09T18:10:58.964Z,101055.07
2018-10-09T18:13:31.054Z,101062.98
2018-10-09T18:16:01.046Z,101064.34
2018-10-09T18:18:32.452Z,101063.36
2018-10-09T18:21:10.110Z,101073.41
2018-10-09T18:23:40.486Z,101064.06
2018-10-09T18:26:10.463Z,101070.42
2018-10-09T18:28:40.394Z,101073.27
2018-10-09T18:31:10.457Z,101079.27
2018-10-09T18:33:40.294Z,101076.59
2018-10-09T18:36:10.378Z,101076.44
2018-10-09T18:38:42.132Z,101078.27
2018-10-09T18:41:12.452Z,101084.63
2018-10-09T18:43:43.455Z,101085.44
2018-10-09T18:46:14.678Z,101081.09
2018-10-09T18:48:45.041Z,101085.77
2018-10-09T18:51:14.958Z,101081.94
2018-10-09T18:53:47.994Z,101085.09
2018-10-09T18:56:18.485Z,101090.43
2018-10-09T18:58:52.109Z,101086.26
2018-10-09T19:01:22.202Z,101084.92
2018-10-09T19:03:52.242Z,101079.23
2018-10-09T19:06:24.234Z,101081.22
2018-10-09T19:08:54.802Z,101088.39
2018-10-09T19:11:26.546Z,101084.05
2018-10-09T19:13:57.645Z,101083.70
2018-10-09T19:16:27.743Z,101086.04
2018-10-09T19:18:57.659Z,101079.67
2018-10-09T19:21:28.407Z,101088.36
2018-10-09T19:23:58.704Z,101082.91
2018-10-09T19:26:29.011Z,101089.90
2018-10-09T19:28:59.754Z,101095.55
2018-10-09T19:31:30.011Z,101097.55
2018-10-09T19:34:00.113Z,101101.87
2018-10-09T19:36:31.033Z,101106.53
2018-10-09T19:39:01.868Z,101111.52
2018-10-09T19:41:33.369Z,101117.32
2018-10-09T19:44:03.504Z,101118.16
2018-10-09T19:46:35.298Z,101113.92
2018-10-09T19:49:05.773Z,101115.58
2018-10-09T19:51:37.010Z,101109.38
2018-10-09T19:54:14.815Z,101116.36
2018-10-09T19:56:44.995Z,101122.33
2018-10-09T19:59:15.778Z,101117.95
2018-10-09T20:01:45.915Z,101121.59
2018-10-09T20:04:16.094Z,101120.23
2018-10-09T20:06:46.699Z,101123.20
2018-10-09T20:09:16.622Z,101125.33
2018-10-09T20:11:46.591Z,101127.32
2018-10-09T20:14:16.843Z,101129.78
2018-10-09T20:16:46.990Z,101108.73
2018-10-09T20:19:17.721Z,101135.64
2018-10-09T20:21:48.647Z,101133.93
2018-10-09T20:24:19.834Z,101145.41
2018-10-09T20:26:50.730Z,101140.53
2018-10-09T20:29:22.163Z,101082.83
2018-10-09T20:31:53.002Z,101137.41
2018-10-09T20:34:23.838Z,101146.36
2018-10-09T20:36:54.930Z,101146.66
2018-10-09T20:39:26.122Z,101148.80
2018-10-09T20:41:56.980Z,101151.77
2018-10-09T20:44:27.855Z,101154.53
2018-10-09T20:46:58.846Z,101151.82
2018-10-09T20:49:31.076Z,101150.45
2018-10-09T20:52:00.947Z,101147.73
2018-10-09T20:54:31.915Z,101153.02
2018-10-09T20:57:02.747Z,101154.31
2018-10-09T20:59:34.049Z,101153.92
2018-10-09T21:02:04.721Z,101155.55
2018-10-09T21:04:35.737Z,101154.52
2018-10-09T21:07:07.021Z,101151.45
2018-10-09T21:09:38.027Z,101147.07
2018-10-09T21:12:08.838Z,101143.50
2018-10-09T21:14:39.814Z,101150.11
2018-10-09T21:17:10.683Z,101147.55
2018-10-09T21:19:41.649Z,101142.78
2018-10-09T21:22:12.526Z,101076.29
2018-10-09T21:24:43.984Z,101146.86
2018-10-09T21:27:14.673Z,101143.85
2018-10-09T21:29:45.835Z,101150.33
2018-10-09T21:32:17.707Z,101131.47
2018-10-09T21:34:47.683Z,101146.70
2018-10-09T21:37:18.586Z,101148.48
2018-10-09T21:39:49.576Z,101139.11
2018-10-09T21:42:22.126Z,101141.77
2018-10-09T21:44:52.310Z,101132.05
2018-10-09T21:47:23.633Z,101128.98
2018-10-09T21:49:53.942Z,101133.05
2018-10-09T21:52:24.650Z,101140.84
2018-10-09T21:54:55.733Z,101131.13
2018-10-09T21:57:26.974Z,101136.39
2018-10-09T21:59:57.825Z,101144.28
2018-10-09T22:02:28.979Z,101145.08
2018-10-09T22:04:59.622Z,101143.81
2018-10-09T22:07:30.648Z,101139.91
2018-10-09T22:10:01.783Z,101144.66
2018-10-09T22:12:32.901Z,101139.28
2018-10-09T22:15:03.662Z,101142.09
2018-10-09T22:17:34.799Z,101145.39
2018-10-09T22:20:06.094Z,101145.16
2018-10-09T22:22:36.768Z,101144.63
2018-10-09T22:25:07.854Z,101144.69
2018-10-09T22:27:38.830Z,101140.78
2018-10-09T22:30:10.329Z,101146.73
2018-10-09T22:32:40.799Z,101148.47
2018-10-09T22:35:11.803Z,101150.07
2018-10-09T22:37:42.749Z,101146.02
2018-10-09T22:40:13.732Z,101147.91
2018-10-09T22:42:44.645Z,101151.70
2018-10-09T22:45:15.819Z,101152.41
2018-10-09T22:47:46.859Z,101155.00
2018-10-09T22:50:18.039Z,101156.48
2018-10-09T22:52:48.874Z,101153.59
2018-10-09T22:55:19.875Z,101162.20
2018-10-09T22:57:51.339Z,101149.03
2018-10-09T23:00:22.139Z,101155.75
2018-10-09T23:02:52.761Z,101156.03
2018-10-09T23:05:23.815Z,101154.97
2018-10-09T23:07:54.647Z,101151.89
2018-10-09T23:10:25.709Z,101159.78
2018-10-09T23:12:56.509Z,101158.02
2018-10-09T23:15:27.839Z,101160.59
2018-10-09T23:17:58.621Z,101162.20
2018-10-09T23:20:29.656Z,101161.14
2018-10-09T23:23:00.610Z,101158.41
2018-10-09T23:25:32.035Z,101163.83
2018-10-09T23:28:02.904Z,101158.67
2018-10-09T23:30:34.420Z,101160.62
2018-10-09T23:33:05.125Z,101158.59
2018-10-09T23:35:36.221Z,101147.27
2018-10-09T23:38:08.718Z,101017.09
2018-10-09T23:40:38.653Z,101148.36
2018-10-09T23:43:08.576Z,101145.15
2018-10-09T23:45:39.742Z,101142.06
2018-10-09T23:48:11.320Z,101112.65
2018-10-09T23:50:42.744Z,101138.27
2018-10-09T23:53:12.696Z,101146.97
2018-10-09T23:55:43.636Z,101138.92
2018-10-09T23:58:14.537Z,101141.98
